N963SF EDSB-EDDH
Flight info
| Callsign | N963SF |
|---|---|
| Flight time | 1h 22m |
| Altitude | 23000 |
| Route | GAGSI Y712 LBU/N0275F300 N851 RIMKI Z99 ELNAT P605 NOLGO |
| Aircraft | SF50/L-BDGRSWY/LB2U2 |
Departure
| Time | 2026-05-07 08:49 |
|---|---|
| Airport | Karlsruhe Baden-Baden Airport (EDSB) |
Arrival
| Time | 2026-05-07 10:11 |
|---|---|
| Airport | Hamburg Helmut Schmidt Airport (EDDH) |
| Time | Latitude | Longitude | Altitude | Speed | Heading |
|---|---|---|---|---|---|
| 2026-05-07 08:37 | 48.76936 | 8.07839 | 410 ft | 0 kts | 301° |
| 2026-05-07 08:44 | 48.76936 | 8.07838 | 410 ft | 1 kts | 301° |
| 2026-05-07 08:44 | 48.76955 | 8.07806 | 410 ft | 9 kts | 341° |
| 2026-05-07 08:44 | 48.77021 | 8.07850 | 410 ft | 9 kts | 39° |
| 2026-05-07 08:44 | 48.77082 | 8.07861 | 410 ft | 9 kts | 2° |
| 2026-05-07 08:45 | 48.77160 | 8.07866 | 410 ft | 14 kts | 3° |
| 2026-05-07 08:45 | 48.77241 | 8.07908 | 410 ft | 12 kts | 32° |
| 2026-05-07 08:45 | 48.77306 | 8.07969 | 410 ft | 10 kts | 32° |
| 2026-05-07 08:45 | 48.77365 | 8.08025 | 410 ft | 10 kts | 32° |
| 2026-05-07 08:46 | 48.77432 | 8.08085 | 410 ft | 13 kts | 31° |
| 2026-05-07 08:46 | 48.77528 | 8.08175 | 410 ft | 19 kts | 34° |
| 2026-05-07 08:46 | 48.77647 | 8.08297 | 410 ft | 21 kts | 31° |
| 2026-05-07 08:46 | 48.77737 | 8.08370 | 410 ft | 9 kts | 342° |
| 2026-05-07 08:47 | 48.77770 | 8.08302 | 410 ft | 9 kts | 301° |
| 2026-05-07 08:47 | 48.77812 | 8.08202 | 410 ft | 12 kts | 301° |
| 2026-05-07 08:47 | 48.77859 | 8.08088 | 409 ft | 13 kts | 302° |
| 2026-05-07 08:47 | 48.77881 | 8.08007 | 409 ft | 6 kts | 242° |
| 2026-05-07 08:48 | 48.77871 | 8.07990 | 409 ft | 0 kts | 212° |
| 2026-05-07 08:48 | 48.77639 | 8.07774 | 409 ft | 76 kts | 211° |
| 2026-05-07 08:48 | 48.77092 | 8.07249 | 711 ft | 103 kts | 213° |
| 2026-05-07 08:49 | 48.76431 | 8.06554 | 1166 ft | 130 kts | 217° |
| 2026-05-07 08:49 | 48.75651 | 8.05672 | 1864 ft | 150 kts | 218° |
| 2026-05-07 08:49 | 48.74771 | 8.04665 | 2431 ft | 164 kts | 219° |
| 2026-05-07 08:49 | 48.73858 | 8.03633 | 3244 ft | 162 kts | 220° |
| 2026-05-07 08:50 | 48.72937 | 8.02608 | 3894 ft | 168 kts | 219° |
| 2026-05-07 08:50 | 48.71986 | 8.01637 | 4614 ft | 167 kts | 217° |
| 2026-05-07 08:50 | 48.71003 | 8.00682 | 5312 ft | 168 kts | 214° |
| 2026-05-07 08:50 | 48.70000 | 7.99720 | 5954 ft | 172 kts | 216° |
| 2026-05-07 08:51 | 48.68996 | 7.98752 | 6682 ft | 172 kts | 217° |
| 2026-05-07 08:51 | 48.67975 | 7.97769 | 7374 ft | 175 kts | 216° |
| 2026-05-07 08:51 | 48.66939 | 7.96789 | 8081 ft | 177 kts | 216° |
| 2026-05-07 08:51 | 48.65883 | 7.95806 | 8778 ft | 179 kts | 216° |
| 2026-05-07 08:52 | 48.64819 | 7.94824 | 9530 ft | 180 kts | 215° |
| 2026-05-07 08:52 | 48.63735 | 7.93841 | 10211 ft | 183 kts | 214° |
| 2026-05-07 08:52 | 48.62624 | 7.92877 | 10839 ft | 187 kts | 207° |
| 2026-05-07 08:52 | 48.61324 | 7.92911 | 11435 ft | 198 kts | 156° |
| 2026-05-07 08:53 | 48.60459 | 7.94514 | 12009 ft | 206 kts | 108° |
| 2026-05-07 08:53 | 48.60207 | 7.96676 | 12547 ft | 211 kts | 98° |
| 2026-05-07 08:53 | 48.59989 | 7.98859 | 13177 ft | 210 kts | 99° |
| 2026-05-07 08:53 | 48.59767 | 8.01052 | 13751 ft | 211 kts | 99° |
| 2026-05-07 08:54 | 48.59544 | 8.03261 | 14238 ft | 215 kts | 99° |
| 2026-05-07 08:54 | 48.59254 | 8.05479 | 14743 ft | 216 kts | 102° |
| 2026-05-07 08:54 | 48.59169 | 8.07753 | 15217 ft | 219 kts | 83° |
| 2026-05-07 08:54 | 48.59515 | 8.09976 | 15741 ft | 218 kts | 70° |
| 2026-05-07 08:55 | 48.59908 | 8.12193 | 16231 ft | 220 kts | 77° |
| 2026-05-07 08:55 | 48.60117 | 8.14493 | 16712 ft | 223 kts | 82° |
| 2026-05-07 08:55 | 48.60297 | 8.16831 | 17187 ft | 224 kts | 81° |
| 2026-05-07 08:55 | 48.60507 | 8.19162 | 17657 ft | 225 kts | 80° |
| 2026-05-07 08:56 | 48.60724 | 8.21507 | 18131 ft | 226 kts | 80° |
| 2026-05-07 08:56 | 48.60936 | 8.23844 | 18533 ft | 229 kts | 80° |
| 2026-05-07 08:56 | 48.61152 | 8.26264 | 18940 ft | 229 kts | 80° |
| 2026-05-07 08:56 | 48.61366 | 8.28651 | 19349 ft | 230 kts | 80° |
| 2026-05-07 08:57 | 48.61582 | 8.31015 | 19736 ft | 231 kts | 80° |
| 2026-05-07 08:57 | 48.61798 | 8.33432 | 20109 ft | 233 kts | 79° |
| 2026-05-07 08:57 | 48.62015 | 8.35855 | 20492 ft | 233 kts | 79° |
| 2026-05-07 08:57 | 48.62232 | 8.38288 | 20889 ft | 234 kts | 79° |
| 2026-05-07 08:58 | 48.62598 | 8.40662 | 21261 ft | 231 kts | 62° |
| 2026-05-07 08:58 | 48.63546 | 8.42542 | 21684 ft | 223 kts | 38° |
| 2026-05-07 08:58 | 48.64727 | 8.44055 | 22086 ft | 222 kts | 36° |
| 2026-05-07 08:58 | 48.65879 | 8.45605 | 22491 ft | 222 kts | 40° |
| 2026-05-07 08:59 | 48.66961 | 8.47266 | 22929 ft | 221 kts | 42° |
| 2026-05-07 08:59 | 48.68029 | 8.48930 | 23329 ft | 220 kts | 41° |
| 2026-05-07 08:59 | 48.69109 | 8.50571 | 23737 ft | 219 kts | 41° |
| 2026-05-07 08:59 | 48.70185 | 8.52204 | 24096 ft | 219 kts | 41° |
| 2026-05-07 09:00 | 48.71253 | 8.53837 | 24434 ft | 218 kts | 41° |
| 2026-05-07 09:00 | 48.72321 | 8.55467 | 24789 ft | 217 kts | 41° |
| 2026-05-07 09:00 | 48.73384 | 8.57084 | 25149 ft | 216 kts | 41° |
| 2026-05-07 09:00 | 48.74441 | 8.58696 | 25506 ft | 215 kts | 41° |
| 2026-05-07 09:01 | 48.75493 | 8.60303 | 25855 ft | 214 kts | 42° |
| 2026-05-07 09:01 | 48.76544 | 8.61907 | 26190 ft | 215 kts | 41° |
| 2026-05-07 09:01 | 48.77598 | 8.63522 | 26534 ft | 215 kts | 42° |
| 2026-05-07 09:01 | 48.78648 | 8.65133 | 26888 ft | 214 kts | 42° |
| 2026-05-07 09:02 | 48.79695 | 8.66736 | 27242 ft | 213 kts | 42° |
| 2026-05-07 09:02 | 48.80736 | 8.68334 | 27590 ft | 213 kts | 42° |
| 2026-05-07 09:02 | 48.81773 | 8.69930 | 27930 ft | 212 kts | 42° |
| 2026-05-07 09:02 | 48.82807 | 8.71518 | 28282 ft | 211 kts | 42° |
| 2026-05-07 09:03 | 48.83835 | 8.73099 | 28616 ft | 210 kts | 42° |
| 2026-05-07 09:03 | 48.84862 | 8.74676 | 28973 ft | 209 kts | 42° |
| 2026-05-07 09:03 | 48.85882 | 8.76244 | 29342 ft | 208 kts | 43° |
| 2026-05-07 09:03 | 48.86898 | 8.77802 | 29742 ft | 207 kts | 42° |
| 2026-05-07 09:04 | 48.87915 | 8.79361 | 30006 ft | 212 kts | 42° |
| 2026-05-07 09:04 | 48.88972 | 8.80985 | 30017 ft | 225 kts | 42° |
| 2026-05-07 09:04 | 48.90090 | 8.82714 | 30018 ft | 233 kts | 42° |
| 2026-05-07 09:04 | 48.91245 | 8.84501 | 30018 ft | 240 kts | 42° |
| 2026-05-07 09:05 | 48.92432 | 8.86333 | 30015 ft | 246 kts | 42° |
| 2026-05-07 09:05 | 48.93647 | 8.88208 | 30018 ft | 252 kts | 43° |
| 2026-05-07 09:05 | 48.94889 | 8.90129 | 30015 ft | 257 kts | 43° |
| 2026-05-07 09:05 | 48.96156 | 8.92090 | 30026 ft | 263 kts | 42° |
| 2026-05-07 09:06 | 48.97453 | 8.94096 | 30015 ft | 269 kts | 43° |
| 2026-05-07 09:06 | 48.98773 | 8.96149 | 30014 ft | 274 kts | 43° |
| 2026-05-07 09:06 | 49.00114 | 8.98234 | 30015 ft | 277 kts | 43° |
| 2026-05-07 09:06 | 49.01473 | 9.00343 | 30017 ft | 281 kts | 43° |
| 2026-05-07 09:07 | 49.02847 | 9.02483 | 30014 ft | 283 kts | 43° |
| 2026-05-07 09:07 | 49.04231 | 9.04641 | 30013 ft | 286 kts | 43° |
| 2026-05-07 09:07 | 49.05630 | 9.06816 | 30012 ft | 288 kts | 43° |
| 2026-05-07 09:07 | 49.07037 | 9.09005 | 30013 ft | 290 kts | 43° |
| 2026-05-07 09:08 | 49.08450 | 9.11211 | 30012 ft | 291 kts | 43° |
| 2026-05-07 09:08 | 49.09392 | 9.12680 | 30014 ft | 292 kts | 43° |
| 2026-05-07 09:08 | 49.10814 | 9.14898 | 30011 ft | 293 kts | 43° |
| 2026-05-07 09:08 | 49.12241 | 9.17128 | 30011 ft | 294 kts | 43° |
| 2026-05-07 09:09 | 49.13671 | 9.19366 | 30009 ft | 295 kts | 43° |
| 2026-05-07 09:09 | 49.15106 | 9.21612 | 30009 ft | 295 kts | 43° |
| 2026-05-07 09:09 | 49.16542 | 9.23862 | 30005 ft | 297 kts | 43° |
| 2026-05-07 09:09 | 49.17983 | 9.26124 | 30005 ft | 297 kts | 43° |
| 2026-05-07 09:10 | 49.19460 | 9.28309 | 29996 ft | 295 kts | 37° |
| 2026-05-07 09:10 | 49.21189 | 9.29953 | 29992 ft | 292 kts | 24° |
| 2026-05-07 09:10 | 49.23096 | 9.30969 | 29990 ft | 290 kts | 11° |
| 2026-05-07 09:10 | 49.25092 | 9.31319 | 29987 ft | 288 kts | 359° |
| 2026-05-07 09:11 | 49.27089 | 9.31166 | 29992 ft | 287 kts | 356° |
| 2026-05-07 09:11 | 49.29085 | 9.31016 | 29993 ft | 287 kts | 356° |
| 2026-05-07 09:11 | 49.31085 | 9.30873 | 29992 ft | 288 kts | 356° |
| 2026-05-07 09:11 | 49.33080 | 9.30716 | 29992 ft | 287 kts | 356° |
| 2026-05-07 09:12 | 49.35077 | 9.30565 | 29991 ft | 287 kts | 357° |
| 2026-05-07 09:12 | 49.37065 | 9.30774 | 29987 ft | 287 kts | 5° |
| 2026-05-07 09:12 | 49.39058 | 9.31087 | 29991 ft | 288 kts | 4° |
| 2026-05-07 09:12 | 49.41059 | 9.31362 | 29998 ft | 289 kts | 4° |
| 2026-05-07 09:13 | 49.43060 | 9.31650 | 29992 ft | 290 kts | 4° |
| 2026-05-07 09:13 | 49.45070 | 9.31957 | 29992 ft | 290 kts | 4° |
| 2026-05-07 09:13 | 49.47081 | 9.32257 | 29993 ft | 291 kts | 4° |
| 2026-05-07 09:13 | 49.49098 | 9.32551 | 29994 ft | 291 kts | 4° |
| 2026-05-07 09:14 | 49.51117 | 9.32849 | 29994 ft | 292 kts | 4° |
| 2026-05-07 09:14 | 49.53134 | 9.33148 | 29995 ft | 290 kts | 4° |
| 2026-05-07 09:14 | 49.55115 | 9.33444 | 29993 ft | 289 kts | 4° |
| 2026-05-07 09:14 | 49.57137 | 9.33745 | 29993 ft | 288 kts | 4° |
| 2026-05-07 09:15 | 49.59125 | 9.34041 | 29991 ft | 287 kts | 4° |
| 2026-05-07 09:15 | 49.61118 | 9.34335 | 29994 ft | 289 kts | 4° |
| 2026-05-07 09:15 | 49.63123 | 9.34634 | 29998 ft | 290 kts | 4° |
| 2026-05-07 09:15 | 49.65141 | 9.34934 | 29997 ft | 292 kts | 4° |
| 2026-05-07 09:16 | 49.67158 | 9.35233 | 29995 ft | 292 kts | 4° |
| 2026-05-07 09:16 | 49.69182 | 9.35536 | 29996 ft | 291 kts | 4° |
| 2026-05-07 09:16 | 49.71166 | 9.35831 | 29995 ft | 290 kts | 4° |
| 2026-05-07 09:16 | 49.73168 | 9.36129 | 29994 ft | 289 kts | 4° |
| 2026-05-07 09:17 | 49.75160 | 9.36486 | 29991 ft | 288 kts | 9° |
| 2026-05-07 09:17 | 49.77110 | 9.37247 | 29986 ft | 289 kts | 13° |
| 2026-05-07 09:17 | 49.79068 | 9.38003 | 29988 ft | 291 kts | 12° |
| 2026-05-07 09:17 | 49.81035 | 9.38740 | 29989 ft | 291 kts | 12° |
| 2026-05-07 09:18 | 49.83004 | 9.39495 | 29995 ft | 293 kts | 12° |
| 2026-05-07 09:18 | 49.84982 | 9.40260 | 29995 ft | 294 kts | 12° |
| 2026-05-07 09:18 | 49.86969 | 9.41023 | 29990 ft | 294 kts | 12° |
| 2026-05-07 09:18 | 49.88958 | 9.41785 | 29991 ft | 295 kts | 12° |
| 2026-05-07 09:19 | 49.90955 | 9.42551 | 29992 ft | 295 kts | 12° |
| 2026-05-07 09:19 | 49.92941 | 9.43317 | 29992 ft | 294 kts | 12° |
| 2026-05-07 09:19 | 49.94926 | 9.44082 | 29988 ft | 293 kts | 12° |
| 2026-05-07 09:19 | 49.96898 | 9.44841 | 29986 ft | 291 kts | 12° |
| 2026-05-07 09:20 | 49.98863 | 9.45603 | 29982 ft | 291 kts | 12° |
| 2026-05-07 09:20 | 50.00830 | 9.46366 | 29983 ft | 292 kts | 12° |
| 2026-05-07 09:20 | 50.02809 | 9.47131 | 29984 ft | 294 kts | 12° |
| 2026-05-07 09:20 | 50.04794 | 9.47894 | 29988 ft | 294 kts | 12° |
| 2026-05-07 09:21 | 50.06784 | 9.48634 | 29988 ft | 294 kts | 9° |
| 2026-05-07 09:21 | 50.08814 | 9.48971 | 29988 ft | 293 kts | 4° |
| 2026-05-07 09:21 | 50.10846 | 9.49287 | 29988 ft | 294 kts | 5° |
| 2026-05-07 09:21 | 50.12885 | 9.49638 | 29986 ft | 295 kts | 5° |
| 2026-05-07 09:22 | 50.14918 | 9.49971 | 29984 ft | 293 kts | 4° |
| 2026-05-07 09:22 | 50.16946 | 9.50295 | 29983 ft | 292 kts | 4° |
| 2026-05-07 09:22 | 50.18966 | 9.50621 | 29982 ft | 291 kts | 5° |
| 2026-05-07 09:22 | 50.20948 | 9.50945 | 29981 ft | 290 kts | 5° |
| 2026-05-07 09:23 | 50.22952 | 9.51269 | 29977 ft | 290 kts | 4° |
| 2026-05-07 09:23 | 50.24962 | 9.51593 | 29977 ft | 291 kts | 4° |
| 2026-05-07 09:23 | 50.26985 | 9.51920 | 29986 ft | 292 kts | 5° |
| 2026-05-07 09:23 | 50.28997 | 9.52250 | 29987 ft | 290 kts | 5° |
| 2026-05-07 09:24 | 50.30999 | 9.52576 | 29983 ft | 289 kts | 5° |
| 2026-05-07 09:24 | 50.32994 | 9.52900 | 29983 ft | 288 kts | 5° |
| 2026-05-07 09:24 | 50.34987 | 9.53222 | 29982 ft | 289 kts | 5° |
| 2026-05-07 09:24 | 50.36988 | 9.53550 | 29982 ft | 290 kts | 5° |
| 2026-05-07 09:25 | 50.38994 | 9.53881 | 29980 ft | 290 kts | 5° |
| 2026-05-07 09:25 | 50.41006 | 9.54209 | 29979 ft | 291 kts | 5° |
| 2026-05-07 09:25 | 50.43023 | 9.54540 | 29980 ft | 292 kts | 5° |
| 2026-05-07 09:25 | 50.45042 | 9.54871 | 29981 ft | 292 kts | 5° |
| 2026-05-07 09:26 | 50.47068 | 9.55206 | 29979 ft | 292 kts | 5° |
| 2026-05-07 09:26 | 50.49086 | 9.55535 | 29978 ft | 291 kts | 5° |
| 2026-05-07 09:26 | 50.51094 | 9.55864 | 29977 ft | 290 kts | 5° |
| 2026-05-07 09:26 | 50.53095 | 9.56195 | 29976 ft | 288 kts | 5° |
| 2026-05-07 09:27 | 50.55089 | 9.56524 | 29976 ft | 288 kts | 5° |
| 2026-05-07 09:27 | 50.57081 | 9.56853 | 29974 ft | 289 kts | 5° |
| 2026-05-07 09:27 | 50.61087 | 9.57537 | 29977 ft | 290 kts | 6° |
| 2026-05-07 09:28 | 50.63090 | 9.57937 | 29977 ft | 290 kts | 7° |
| 2026-05-07 09:28 | 50.65090 | 9.58333 | 29976 ft | 290 kts | 6° |
| 2026-05-07 09:28 | 50.67090 | 9.58710 | 29976 ft | 289 kts | 6° |
| 2026-05-07 09:28 | 50.69064 | 9.59083 | 29977 ft | 291 kts | 6° |
| 2026-05-07 09:29 | 50.71075 | 9.59469 | 29981 ft | 292 kts | 6° |
| 2026-05-07 09:29 | 50.73090 | 9.59858 | 29982 ft | 291 kts | 6° |
| 2026-05-07 09:29 | 50.75096 | 9.60247 | 29981 ft | 290 kts | 6° |
| 2026-05-07 09:29 | 50.77091 | 9.60633 | 29976 ft | 289 kts | 6° |
| 2026-05-07 09:30 | 50.79084 | 9.61019 | 29974 ft | 289 kts | 6° |
| 2026-05-07 09:30 | 50.81081 | 9.61403 | 29972 ft | 289 kts | 6° |
| 2026-05-07 09:30 | 50.83075 | 9.61794 | 29972 ft | 289 kts | 6° |
| 2026-05-07 09:30 | 50.85070 | 9.62181 | 29971 ft | 289 kts | 6° |
| 2026-05-07 09:31 | 50.87062 | 9.62564 | 29970 ft | 289 kts | 6° |
| 2026-05-07 09:31 | 50.89058 | 9.62952 | 29975 ft | 288 kts | 6° |
| 2026-05-07 09:31 | 50.91050 | 9.63340 | 29974 ft | 289 kts | 6° |
| 2026-05-07 09:31 | 50.93048 | 9.63728 | 29975 ft | 290 kts | 6° |
| 2026-05-07 09:32 | 50.95051 | 9.64121 | 29972 ft | 290 kts | 7° |
| 2026-05-07 09:32 | 50.97056 | 9.64508 | 29972 ft | 290 kts | 7° |
| 2026-05-07 09:32 | 50.99056 | 9.64893 | 29969 ft | 290 kts | 7° |
| 2026-05-07 09:32 | 51.01059 | 9.65288 | 29970 ft | 290 kts | 8° |
| 2026-05-07 09:33 | 51.03052 | 9.65680 | 29974 ft | 287 kts | 8° |
| 2026-05-07 09:33 | 51.05033 | 9.66067 | 29969 ft | 287 kts | 7° |
| 2026-05-07 09:33 | 51.06990 | 9.66448 | 29973 ft | 288 kts | 7° |
| 2026-05-07 09:33 | 51.08972 | 9.66835 | 29975 ft | 287 kts | 7° |
| 2026-05-07 09:34 | 51.10946 | 9.67226 | 29973 ft | 286 kts | 7° |
| 2026-05-07 09:34 | 51.12930 | 9.67619 | 29972 ft | 288 kts | 7° |
| 2026-05-07 09:34 | 51.14943 | 9.68013 | 29976 ft | 288 kts | 7° |
| 2026-05-07 09:34 | 51.16928 | 9.68401 | 29978 ft | 287 kts | 8° |
| 2026-05-07 09:35 | 51.18886 | 9.68789 | 29972 ft | 290 kts | 8° |
| 2026-05-07 09:35 | 51.20899 | 9.69172 | 29973 ft | 292 kts | 6° |
| 2026-05-07 09:35 | 51.22935 | 9.69469 | 29980 ft | 295 kts | 8° |
| 2026-05-07 09:35 | 51.24984 | 9.69823 | 29981 ft | 297 kts | 7° |
| 2026-05-07 09:36 | 51.27046 | 9.70175 | 29984 ft | 299 kts | 8° |
| 2026-05-07 09:36 | 51.29122 | 9.70504 | 29984 ft | 300 kts | 7° |
| 2026-05-07 09:36 | 51.31204 | 9.70831 | 29985 ft | 301 kts | 8° |
| 2026-05-07 09:37 | 51.35383 | 9.71517 | 29994 ft | 302 kts | 7° |
| 2026-05-07 09:37 | 51.39581 | 9.72197 | 30000 ft | 304 kts | 8° |
| 2026-05-07 09:38 | 51.43801 | 9.72886 | 29986 ft | 306 kts | 7° |
| 2026-05-07 09:38 | 51.48034 | 9.73583 | 29987 ft | 306 kts | 7° |
| 2026-05-07 09:39 | 51.52262 | 9.74403 | 29991 ft | 306 kts | 8° |
| 2026-05-07 09:39 | 51.56496 | 9.75196 | 29990 ft | 306 kts | 7° |
| 2026-05-07 09:40 | 51.60716 | 9.75994 | 29989 ft | 305 kts | 7° |
| 2026-05-07 09:40 | 51.64926 | 9.76792 | 29985 ft | 304 kts | 7° |
| 2026-05-07 09:41 | 51.69147 | 9.77594 | 29990 ft | 305 kts | 7° |
| 2026-05-07 09:41 | 51.73354 | 9.78395 | 29989 ft | 305 kts | 7° |
| 2026-05-07 09:42 | 51.77569 | 9.79198 | 29995 ft | 304 kts | 7° |
| 2026-05-07 09:42 | 51.81779 | 9.80002 | 29999 ft | 306 kts | 7° |
| 2026-05-07 09:43 | 51.85996 | 9.80806 | 29999 ft | 304 kts | 7° |
| 2026-05-07 09:43 | 51.90214 | 9.81621 | 30001 ft | 306 kts | 7° |
| 2026-05-07 09:44 | 51.94427 | 9.82433 | 29997 ft | 305 kts | 6° |
| 2026-05-07 09:44 | 51.98658 | 9.83257 | 30003 ft | 305 kts | 7° |
| 2026-05-07 09:45 | 52.02874 | 9.84075 | 29999 ft | 306 kts | 6° |
| 2026-05-07 09:45 | 52.07095 | 9.84899 | 30012 ft | 304 kts | 6° |
| 2026-05-07 09:46 | 52.11307 | 9.85721 | 30014 ft | 306 kts | 6° |
| 2026-05-07 09:46 | 52.15493 | 9.86536 | 30020 ft | 305 kts | 6° |
| 2026-05-07 09:47 | 52.19696 | 9.87363 | 30015 ft | 304 kts | 6° |
| 2026-05-07 09:47 | 52.23881 | 9.88181 | 30013 ft | 303 kts | 6° |
| 2026-05-07 09:48 | 52.27987 | 9.89699 | 30017 ft | 304 kts | 15° |
| 2026-05-07 09:48 | 52.32078 | 9.91484 | 30018 ft | 305 kts | 14° |
| 2026-05-07 09:49 | 52.36173 | 9.93289 | 30023 ft | 305 kts | 14° |
| 2026-05-07 09:49 | 52.40266 | 9.95093 | 30023 ft | 304 kts | 14° |
| 2026-05-07 09:49 | 52.42317 | 9.95996 | 29789 ft | 306 kts | 14° |
| 2026-05-07 09:50 | 52.44362 | 9.96901 | 29394 ft | 302 kts | 14° |
| 2026-05-07 09:50 | 52.46374 | 9.97791 | 28998 ft | 298 kts | 14° |
| 2026-05-07 09:50 | 52.48369 | 9.98673 | 28606 ft | 297 kts | 14° |
| 2026-05-07 09:50 | 52.50383 | 9.99563 | 28213 ft | 302 kts | 14° |
| 2026-05-07 09:51 | 52.52424 | 10.00467 | 27811 ft | 305 kts | 14° |
| 2026-05-07 09:51 | 52.54473 | 10.01378 | 27407 ft | 304 kts | 14° |
| 2026-05-07 09:51 | 52.56513 | 10.02286 | 27005 ft | 304 kts | 14° |
| 2026-05-07 09:51 | 52.58566 | 10.03198 | 26606 ft | 306 kts | 13° |
| 2026-05-07 09:52 | 52.60624 | 10.04115 | 26197 ft | 307 kts | 13° |
| 2026-05-07 09:52 | 52.62692 | 10.05042 | 25791 ft | 308 kts | 14° |
| 2026-05-07 09:52 | 52.64768 | 10.05971 | 25384 ft | 309 kts | 14° |
| 2026-05-07 09:52 | 52.66846 | 10.06902 | 24971 ft | 310 kts | 14° |
| 2026-05-07 09:53 | 52.68930 | 10.07840 | 24563 ft | 310 kts | 14° |
| 2026-05-07 09:53 | 52.71013 | 10.08770 | 24156 ft | 311 kts | 14° |
| 2026-05-07 09:53 | 52.73101 | 10.09704 | 23747 ft | 311 kts | 14° |
| 2026-05-07 09:53 | 52.75186 | 10.10644 | 23322 ft | 312 kts | 14° |
| 2026-05-07 09:54 | 52.77291 | 10.11559 | 22900 ft | 313 kts | 11° |
| 2026-05-07 09:54 | 52.79450 | 10.11844 | 22486 ft | 311 kts | 359° |
| 2026-05-07 09:54 | 52.81618 | 10.11879 | 22078 ft | 312 kts | 360° |
| 2026-05-07 09:54 | 52.83791 | 10.11966 | 21663 ft | 313 kts | 359° |
| 2026-05-07 09:55 | 52.85968 | 10.12053 | 21248 ft | 313 kts | 359° |
| 2026-05-07 09:55 | 52.88141 | 10.12120 | 20834 ft | 312 kts | 359° |
| 2026-05-07 09:55 | 52.90314 | 10.12185 | 20422 ft | 313 kts | 359° |
| 2026-05-07 09:55 | 52.92498 | 10.12258 | 20008 ft | 314 kts | 360° |
| 2026-05-07 09:56 | 52.94687 | 10.12330 | 19592 ft | 314 kts | 360° |
| 2026-05-07 09:56 | 52.96871 | 10.12402 | 19176 ft | 314 kts | 359° |
| 2026-05-07 09:56 | 52.99060 | 10.12476 | 18760 ft | 315 kts | 359° |
| 2026-05-07 09:56 | 53.00512 | 10.12524 | 18485 ft | 315 kts | 360° |
| 2026-05-07 09:57 | 53.02704 | 10.12595 | 18035 ft | 315 kts | 359° |
| 2026-05-07 09:57 | 53.04883 | 10.12667 | 17617 ft | 313 kts | 0° |
| 2026-05-07 09:57 | 53.07070 | 10.12741 | 17198 ft | 315 kts | 359° |
| 2026-05-07 09:57 | 53.09266 | 10.12814 | 16779 ft | 315 kts | 0° |
| 2026-05-07 09:58 | 53.11436 | 10.12887 | 16367 ft | 309 kts | 360° |
| 2026-05-07 09:58 | 53.13573 | 10.12958 | 15961 ft | 306 kts | 360° |
| 2026-05-07 09:58 | 53.15691 | 10.13027 | 15558 ft | 304 kts | 0° |
| 2026-05-07 09:58 | 53.17803 | 10.13096 | 15126 ft | 303 kts | 0° |
| 2026-05-07 09:59 | 53.19907 | 10.13166 | 14642 ft | 300 kts | 360° |
| 2026-05-07 09:59 | 53.21970 | 10.13188 | 14145 ft | 292 kts | 355° |
| 2026-05-07 09:59 | 53.23835 | 10.12067 | 13619 ft | 279 kts | 326° |
| 2026-05-07 09:59 | 53.25232 | 10.10030 | 13076 ft | 259 kts | 315° |
| 2026-05-07 10:00 | 53.26489 | 10.07873 | 12548 ft | 260 kts | 314° |
| 2026-05-07 10:00 | 53.27727 | 10.05690 | 12030 ft | 258 kts | 314° |
| 2026-05-07 10:00 | 53.28958 | 10.03502 | 11523 ft | 259 kts | 314° |
| 2026-05-07 10:00 | 53.30191 | 10.01315 | 11026 ft | 257 kts | 314° |
| 2026-05-07 10:01 | 53.31410 | 9.99136 | 10527 ft | 256 kts | 314° |
| 2026-05-07 10:01 | 53.32615 | 9.96958 | 10044 ft | 255 kts | 314° |
| 2026-05-07 10:01 | 53.33821 | 9.94788 | 9518 ft | 253 kts | 314° |
| 2026-05-07 10:01 | 53.35006 | 9.92624 | 8985 ft | 252 kts | 314° |
| 2026-05-07 10:02 | 53.36169 | 9.90430 | 8465 ft | 251 kts | 314° |
| 2026-05-07 10:02 | 53.37316 | 9.88249 | 7949 ft | 248 kts | 314° |
| 2026-05-07 10:02 | 53.38458 | 9.86085 | 7442 ft | 247 kts | 314° |
| 2026-05-07 10:02 | 53.39585 | 9.83917 | 6936 ft | 246 kts | 314° |
| 2026-05-07 10:03 | 53.40703 | 9.81750 | 6448 ft | 245 kts | 314° |
| 2026-05-07 10:03 | 53.41793 | 9.79625 | 5931 ft | 244 kts | 314° |
| 2026-05-07 10:03 | 53.42894 | 9.77481 | 5417 ft | 238 kts | 314° |
| 2026-05-07 10:03 | 53.43935 | 9.75442 | 4904 ft | 221 kts | 314° |
| 2026-05-07 10:04 | 53.44902 | 9.73532 | 4375 ft | 211 kts | 314° |
| 2026-05-07 10:04 | 53.45863 | 9.71716 | 3848 ft | 204 kts | 324° |
| 2026-05-07 10:04 | 53.47143 | 9.70987 | 3309 ft | 192 kts | 9° |
| 2026-05-07 10:04 | 53.48388 | 9.71551 | 3005 ft | 178 kts | 24° |
| 2026-05-07 10:05 | 53.49533 | 9.72367 | 2994 ft | 184 kts | 34° |
| 2026-05-07 10:05 | 53.50504 | 9.73700 | 3004 ft | 173 kts | 49° |
| 2026-05-07 10:05 | 53.51268 | 9.75134 | 2997 ft | 161 kts | 51° |
| 2026-05-07 10:05 | 53.52001 | 9.76556 | 2992 ft | 162 kts | 52° |
| 2026-05-07 10:06 | 53.52716 | 9.78006 | 2925 ft | 159 kts | 54° |
| 2026-05-07 10:06 | 53.53410 | 9.79429 | 2731 ft | 156 kts | 52° |
| 2026-05-07 10:06 | 53.54109 | 9.80799 | 2512 ft | 154 kts | 51° |
| 2026-05-07 10:06 | 53.54799 | 9.82171 | 2303 ft | 153 kts | 52° |
| 2026-05-07 10:07 | 53.55462 | 9.83538 | 2099 ft | 146 kts | 54° |
| 2026-05-07 10:07 | 53.56071 | 9.84745 | 1913 ft | 126 kts | 52° |
| 2026-05-07 10:07 | 53.56603 | 9.85828 | 1750 ft | 116 kts | 54° |
| 2026-05-07 10:07 | 53.57101 | 9.86863 | 1581 ft | 116 kts | 52° |
| 2026-05-07 10:08 | 53.57641 | 9.87873 | 1429 ft | 116 kts | 51° |
| 2026-05-07 10:08 | 53.58158 | 9.88931 | 1261 ft | 115 kts | 55° |
| 2026-05-07 10:08 | 53.58600 | 9.89921 | 1087 ft | 102 kts | 51° |
| 2026-05-07 10:08 | 53.59067 | 9.90811 | 1024 ft | 102 kts | 49° |
| 2026-05-07 10:09 | 53.59536 | 9.91700 | 941 ft | 103 kts | 50° |
| 2026-05-07 10:09 | 53.59992 | 9.92630 | 767 ft | 100 kts | 53° |
| 2026-05-07 10:09 | 53.60412 | 9.93497 | 649 ft | 91 kts | 50° |
| 2026-05-07 10:09 | 53.60803 | 9.94294 | 532 ft | 85 kts | 55° |
| 2026-05-07 10:10 | 53.61199 | 9.95070 | 405 ft | 92 kts | 49° |
| 2026-05-07 10:10 | 53.61598 | 9.95892 | 266 ft | 89 kts | 52° |
| 2026-05-07 10:10 | 53.61998 | 9.96702 | 110 ft | 91 kts | 50° |
| 2026-05-07 10:10 | 53.62380 | 9.97486 | 36 ft | 79 kts | 51° |
| 2026-05-07 10:11 | 53.62695 | 9.98126 | 36 ft | 63 kts | 49° |
| 2026-05-07 10:11 | 53.62946 | 9.98639 | 39 ft | 52 kts | 51° |
| 2026-05-07 10:11 | 53.63076 | 9.98937 | 40 ft | 19 kts | 69° |
| 2026-05-07 10:11 | 53.63091 | 9.99126 | 40 ft | 14 kts | 94° |
| 2026-05-07 10:12 | 53.63069 | 9.99239 | 41 ft | 9 kts | 162° |
| 2026-05-07 10:12 | 53.63021 | 9.99221 | 41 ft | 7 kts | 222° |
| 2026-05-07 10:12 | 53.62984 | 9.99147 | 41 ft | 11 kts | 230° |
| 2026-05-07 10:12 | 53.62920 | 9.99018 | 41 ft | 18 kts | 231° |
| 2026-05-07 10:13 | 53.62837 | 9.98851 | 41 ft | 19 kts | 230° |
| 2026-05-07 10:13 | 53.62762 | 9.98695 | 41 ft | 16 kts | 231° |
| 2026-05-07 10:13 | 53.62715 | 9.98644 | 41 ft | 6 kts | 142° |
| 2026-05-07 10:13 | 53.62688 | 9.98670 | 41 ft | 5 kts | 153° |
| 2026-05-07 10:14 | 53.62644 | 9.98682 | 41 ft | 6 kts | 222° |
| 2026-05-07 10:14 | 53.62632 | 9.98640 | 41 ft | 0 kts | 240° |